createdAt,value
2023-03-03T00:03:24.684Z,74.75
2023-03-03T00:05:58.514Z,74.82
2023-03-03T00:08:34.573Z,74.19
2023-03-03T00:11:03.377Z,74.09
2023-03-03T00:13:32.819Z,75.04
2023-03-03T00:16:16.446Z,75.17
2023-03-03T00:18:47.979Z,75.61
2023-03-03T00:21:49.270Z,74.72
2023-03-03T00:24:23.469Z,75.13
2023-03-03T00:26:52.168Z,74.92
2023-03-03T00:29:28.028Z,74.13
2023-03-03T00:31:55.199Z,75.66
2023-03-03T00:34:27.141Z,76.58
2023-03-03T00:36:59.377Z,76.90
2023-03-03T00:39:36.760Z,76.27
2023-03-03T00:42:13.578Z,76.33
2023-03-03T00:44:48.670Z,77.17
2023-03-03T00:47:37.000Z,77.15
2023-03-03T00:50:06.936Z,77.26
2023-03-03T00:52:39.517Z,77.42
2023-03-03T00:55:07.899Z,77.28
2023-03-03T00:57:34.912Z,77.78
2023-03-03T01:00:01.590Z,77.01
2023-03-03T01:02:28.339Z,77.54
2023-03-03T01:04:57.944Z,77.80
2023-03-03T01:07:25.825Z,78.24
2023-03-03T01:09:52.996Z,78.42
2023-03-03T01:12:19.760Z,78.49
2023-03-03T01:14:46.617Z,78.78
2023-03-03T01:17:13.340Z,79.37
2023-03-03T01:19:40.027Z,79.21
2023-03-03T01:22:07.080Z,79.63
2023-03-03T01:24:33.783Z,80.04
2023-03-03T01:27:00.540Z,79.71
2023-03-03T01:29:27.263Z,79.94
2023-03-03T01:31:54.044Z,79.27
2023-03-03T01:34:20.889Z,80.14
2023-03-03T01:36:47.765Z,80.44
2023-03-03T01:39:15.154Z,80.14
2023-03-03T01:41:41.971Z,80.73
2023-03-03T01:44:14.401Z,80.92
2023-03-03T01:46:52.628Z,80.95
2023-03-03T01:49:43.108Z,81.59
2023-03-03T01:52:38.217Z,81.03
2023-03-03T01:55:11.625Z,81.10
2023-03-03T01:57:43.341Z,81.12
2023-03-03T02:00:11.440Z,81.16
2023-03-03T02:02:39.667Z,80.48
2023-03-03T02:05:11.353Z,81.14
2023-03-03T02:07:38.728Z,81.70
2023-03-03T02:10:07.706Z,81.00
2023-03-03T02:12:40.512Z,81.83
2023-03-03T02:15:19.072Z,81.71
2023-03-03T02:17:48.558Z,81.93
2023-03-03T02:20:37.170Z,81.73
2023-03-03T02:23:15.941Z,81.64
2023-03-03T02:25:52.240Z,82.37
2023-03-03T02:28:19.061Z,82.83
2023-03-03T02:30:46.652Z,82.88
2023-03-03T02:33:13.611Z,83.54
2023-03-03T02:35:41.942Z,82.57
2023-03-03T02:38:20.746Z,82.80
2023-03-03T02:40:52.481Z,83.75
2023-03-03T02:43:22.904Z,84.67
2023-03-03T02:48:16.583Z,84.55
2023-03-03T02:50:43.291Z,84.77
2023-03-03T02:53:10.039Z,85.17
2023-03-03T02:55:36.824Z,84.67
2023-03-03T02:58:04.422Z,84.04
2023-03-03T03:00:32.561Z,84.14
2023-03-03T03:02:59.349Z,83.60
2023-03-03T03:05:26.089Z,84.72
2023-03-03T03:07:52.871Z,85.07
2023-03-03T03:10:20.019Z,84.93
2023-03-03T03:12:46.856Z,84.40
2023-03-03T03:15:13.709Z,84.59
2023-03-03T03:17:40.382Z,84.49
2023-03-03T03:20:07.443Z,84.90
2023-03-03T03:22:34.621Z,84.99
2023-03-03T03:25:02.021Z,85.70
2023-03-03T03:27:28.701Z,86.28
2023-03-03T03:29:55.425Z,85.59
2023-03-03T03:32:22.372Z,86.08
2023-03-03T03:34:49.287Z,85.22
2023-03-03T03:37:15.938Z,84.96
2023-03-03T03:39:42.818Z,85.45
2023-03-03T03:42:10.068Z,85.65
2023-03-03T03:44:36.752Z,86.36
2023-03-03T03:47:03.734Z,86.13
2023-03-03T03:49:30.615Z,86.56
2023-03-03T03:51:57.765Z,86.07
2023-03-03T03:54:24.935Z,86.87
2023-03-03T03:56:52.602Z,86.73
2023-03-03T03:59:20.192Z,86.94
2023-03-03T04:01:48.321Z,86.19
2023-03-03T04:04:16.454Z,87.16
2023-03-03T04:06:43.219Z,87.83
2023-03-03T04:09:09.955Z,87.73
2023-03-03T04:11:39.188Z,88.15
2023-03-03T04:14:09.214Z,87.74
2023-03-03T04:16:36.027Z,87.71
2023-03-03T04:19:02.734Z,87.91
2023-03-03T04:21:30.535Z,88.51
2023-03-03T04:23:57.303Z,88.92
2023-03-03T04:26:24.108Z,89.01
2023-03-03T04:31:17.314Z,88.36
2023-03-03T04:33:44.194Z,88.14
2023-03-03T04:36:11.012Z,88.20
2023-03-03T04:38:37.722Z,88.69
2023-03-03T04:41:04.581Z,88.36
2023-03-03T04:43:32.205Z,88.56
2023-03-03T04:45:59.000Z,88.55
2023-03-03T04:48:25.809Z,89.19
2023-03-03T04:50:52.493Z,89.65
2023-03-03T04:53:19.189Z,90.14
2023-03-03T04:55:46.079Z,90.13
2023-03-03T04:58:13.193Z,89.98
2023-03-03T05:00:40.246Z,90.41
2023-03-03T05:03:07.585Z,90.19
2023-03-03T05:05:34.422Z,90.55
2023-03-03T05:08:01.088Z,90.92
2023-03-03T05:10:27.928Z,91.26
2023-03-03T05:12:54.689Z,91.43
2023-03-03T05:15:21.456Z,91.69
2023-03-03T05:17:48.166Z,91.80
2023-03-03T05:20:15.538Z,91.25
2023-03-03T05:22:42.225Z,91.20
2023-03-03T05:25:10.807Z,90.99
2023-03-03T05:27:37.466Z,91.89
2023-03-03T05:30:05.141Z,91.79
2023-03-03T05:32:32.492Z,91.43
2023-03-03T05:34:59.204Z,91.20
2023-03-03T05:37:25.967Z,91.16
2023-03-03T05:39:52.675Z,91.63
2023-03-03T05:42:20.121Z,91.55
2023-03-03T05:44:46.977Z,92.54
2023-03-03T05:47:13.806Z,92.55
2023-03-03T05:49:40.854Z,91.36
2023-03-03T05:52:09.211Z,91.50
2023-03-03T05:54:36.044Z,91.41
2023-03-03T05:57:03.416Z,91.95
2023-03-03T05:59:30.389Z,91.80
2023-03-03T06:01:57.343Z,92.13
2023-03-03T06:04:24.220Z,92.51
2023-03-03T06:09:20.347Z,92.47
2023-03-03T06:11:47.171Z,92.05
2023-03-03T06:14:13.968Z,91.79
2023-03-03T06:16:40.824Z,91.46
2023-03-03T06:19:07.905Z,91.09
2023-03-03T06:21:34.566Z,91.63
2023-03-03T06:24:01.628Z,91.34
2023-03-03T06:26:28.489Z,91.03
2023-03-03T06:28:56.023Z,91.34
2023-03-03T06:31:23.703Z,91.93
2023-03-03T06:33:52.309Z,92.31
2023-03-03T06:36:19.850Z,91.44
2023-03-03T06:38:47.208Z,90.97
2023-03-03T06:41:13.969Z,89.93
2023-03-03T06:43:40.753Z,90.16
2023-03-03T06:46:07.507Z,90.80
2023-03-03T06:48:34.312Z,90.53
2023-03-03T06:51:03.316Z,90.11
2023-03-03T06:53:33.368Z,89.82
2023-03-03T06:56:02.053Z,89.40
2023-03-03T06:58:30.255Z,89.49
2023-03-03T07:01:01.811Z,88.83
2023-03-03T07:03:34.630Z,88.54
2023-03-03T07:06:03.543Z,87.87
2023-03-03T07:08:32.619Z,87.68
2023-03-03T07:11:08.333Z,87.31
2023-03-03T07:13:46.728Z,86.81
2023-03-03T07:16:15.942Z,87.37
2023-03-03T07:18:52.364Z,87.00
2023-03-03T07:21:31.021Z,86.81
2023-03-03T07:24:00.567Z,86.36
2023-03-03T07:26:34.919Z,86.17
2023-03-03T07:29:28.372Z,86.05
2023-03-03T07:31:58.336Z,85.74
2023-03-03T07:34:42.998Z,85.76
2023-03-03T07:37:20.497Z,85.61
2023-03-03T07:42:33.895Z,85.36
2023-03-03T07:45:01.976Z,84.42
2023-03-03T07:47:36.191Z,83.58
2023-03-03T07:50:31.220Z,83.27
2023-03-03T07:53:01.821Z,82.68
2023-03-03T07:55:28.466Z,82.92
2023-03-03T07:58:00.013Z,82.59
2023-03-03T08:00:26.785Z,82.11
2023-03-03T08:03:21.074Z,82.01
2023-03-03T08:05:49.783Z,82.32
2023-03-03T08:08:45.338Z,80.21
2023-03-03T08:11:12.092Z,79.91
2023-03-03T08:13:42.215Z,79.73
2023-03-03T08:16:12.526Z,79.52
2023-03-03T08:21:28.227Z,79.17
2023-03-03T08:23:55.770Z,77.29
2023-03-03T08:26:23.561Z,75.73
2023-03-03T08:31:27.975Z,74.36
2023-03-03T08:34:04.774Z,73.43
2023-03-03T08:36:33.673Z,73.51
2023-03-03T08:39:01.608Z,73.33
2023-03-03T08:41:28.364Z,72.86
2023-03-03T08:43:55.315Z,71.55
2023-03-03T08:46:23.458Z,71.33
2023-03-03T08:51:17.119Z,71.02
2023-03-03T08:53:43.977Z,70.96
2023-03-03T08:56:10.728Z,71.21
2023-03-03T08:58:37.867Z,70.82
2023-03-03T09:01:05.258Z,69.89
2023-03-03T09:03:32.100Z,69.11
2023-03-03T09:05:59.512Z,69.37
2023-03-03T09:08:26.162Z,67.63
2023-03-03T09:10:52.881Z,67.50
2023-03-03T09:13:20.659Z,67.64
2023-03-03T09:15:49.214Z,66.61
2023-03-03T09:18:26.626Z,65.91
2023-03-03T09:20:54.428Z,66.56
2023-03-03T09:23:23.940Z,67.02
2023-03-03T09:25:52.398Z,68.04
2023-03-03T09:28:30.953Z,66.44
2023-03-03T09:31:03.363Z,63.51
2023-03-03T09:33:45.427Z,63.16
2023-03-03T09:36:35.657Z,64.64
2023-03-03T09:39:23.724Z,64.58
2023-03-03T09:41:51.666Z,63.16
2023-03-03T09:44:27.287Z,64.66
2023-03-03T09:47:12.229Z,63.20
2023-03-03T09:52:52.410Z,63.02
2023-03-03T09:55:52.789Z,62.20
2023-03-03T09:58:27.620Z,60.75
2023-03-03T10:01:00.346Z,60.48
2023-03-03T10:03:46.984Z,59.41
2023-03-03T10:06:29.302Z,61.43
2023-03-03T10:09:06.867Z,60.25
2023-03-03T10:11:45.418Z,59.52
2023-03-03T10:14:21.151Z,58.60
2023-03-03T10:16:52.505Z,58.20
2023-03-03T10:19:38.046Z,59.10
2023-03-03T10:22:24.347Z,59.15
2023-03-03T10:24:52.767Z,59.30
2023-03-03T10:27:44.244Z,58.18
2023-03-03T10:30:40.851Z,57.98
2023-03-03T10:33:52.741Z,57.62
2023-03-03T10:36:35.462Z,56.14
2023-03-03T10:39:36.656Z,57.01
2023-03-03T10:42:24.913Z,55.34
2023-03-03T10:44:52.487Z,54.07
2023-03-03T10:47:40.795Z,53.85
2023-03-03T10:50:32.482Z,53.40
2023-03-03T10:53:08.233Z,53.33
2023-03-03T10:55:52.606Z,53.60
2023-03-03T10:58:52.583Z,52.93
2023-03-03T11:01:52.439Z,52.32
2023-03-03T11:04:38.107Z,52.14
2023-03-03T11:07:18.026Z,52.08
2023-03-03T11:09:52.516Z,50.90
2023-03-03T11:12:22.867Z,52.92
2023-03-03T11:14:52.628Z,51.03
2023-03-03T11:20:37.876Z,49.49
2023-03-03T11:23:22.647Z,49.15
2023-03-03T11:25:53.374Z,49.42
2023-03-03T11:28:52.441Z,49.73
2023-03-03T11:31:34.563Z,49.21
2023-03-03T11:34:12.768Z,50.18
2023-03-03T11:36:52.675Z,47.95
2023-03-03T11:39:28.196Z,46.54
2023-03-03T11:42:11.004Z,46.18
2023-03-03T11:47:31.397Z,42.81
2023-03-03T11:50:09.200Z,43.34
2023-03-03T11:52:51.603Z,39.37
2023-03-03T11:55:25.105Z,41.10
2023-03-03T11:57:57.601Z,39.93
2023-03-03T12:00:52.552Z,36.43
2023-03-03T12:03:32.395Z,37.12
2023-03-03T12:06:29.436Z,35.70
2023-03-03T12:09:08.015Z,36.31
2023-03-03T12:11:54.151Z,35.81
2023-03-03T12:14:42.143Z,34.76
2023-03-03T12:17:31.278Z,34.27
2023-03-03T12:20:15.275Z,33.51
2023-03-03T12:23:05.790Z,35.82
2023-03-03T12:25:38.812Z,31.68
2023-03-03T12:28:32.327Z,31.46
2023-03-03T12:31:22.998Z,31.68
2023-03-03T12:33:52.512Z,33.78
2023-03-03T12:36:37.660Z,34.95
2023-03-03T12:39:34.795Z,34.92
2023-03-03T12:42:20.649Z,33.15
2023-03-03T12:44:53.054Z,32.52
2023-03-03T12:47:30.345Z,31.96
2023-03-03T12:50:18.405Z,33.56
2023-03-03T12:52:56.919Z,31.85
2023-03-03T12:55:52.579Z,31.61
2023-03-03T12:58:26.675Z,29.62
2023-03-03T13:01:17.902Z,32.62
2023-03-03T13:03:56.131Z,28.67
2023-03-03T13:06:31.155Z,27.02
2023-03-03T13:09:35.198Z,29.12
2023-03-03T13:12:40.280Z,30.90
2023-03-03T13:15:16.095Z,30.39
2023-03-03T13:17:52.712Z,27.59
2023-03-03T13:20:47.323Z,28.60
2023-03-03T13:23:32.309Z,28.89
2023-03-03T13:26:06.193Z,30.02
2023-03-03T13:28:52.665Z,29.27
2023-03-03T13:31:22.615Z,27.80
2023-03-03T13:33:55.227Z,25.41
2023-03-03T13:39:26.148Z,29.22
2023-03-03T13:42:19.927Z,28.99
2023-03-03T13:50:38.419Z,30.32
2023-03-03T13:53:18.182Z,31.08
2023-03-03T13:55:51.681Z,29.49
2023-03-03T13:58:45.149Z,30.48
2023-03-03T14:01:19.007Z,29.75
2023-03-03T14:03:52.732Z,32.18
2023-03-03T14:06:23.491Z,29.74
2023-03-03T14:08:52.747Z,30.03
2023-03-03T14:11:52.633Z,30.15
2023-03-03T14:14:35.902Z,30.81
2023-03-03T14:17:09.716Z,30.99
2023-03-03T14:19:52.815Z,28.91
2023-03-03T14:22:30.396Z,28.73
2023-03-03T14:25:07.948Z,28.35
2023-03-03T14:27:49.105Z,31.87
2023-03-03T14:30:25.028Z,29.79
2023-03-03T14:32:52.651Z,31.41
2023-03-03T14:35:21.448Z,30.83
2023-03-03T14:40:22.449Z,29.17
2023-03-03T14:42:52.634Z,28.18
2023-03-03T14:45:31.480Z,27.90
2023-03-03T14:47:59.828Z,29.54
2023-03-03T14:50:38.907Z,32.38
2023-03-03T14:53:12.833Z,31.75
2023-03-03T14:55:42.723Z,32.47
2023-03-03T14:58:26.354Z,31.63
2023-03-03T15:01:16.778Z,34.75
2023-03-03T15:03:52.748Z,30.53
2023-03-03T15:06:44.765Z,31.27
2023-03-03T15:09:38.444Z,30.92
2023-03-03T15:12:36.642Z,31.34
2023-03-03T15:15:06.215Z,30.18
2023-03-03T15:17:52.622Z,30.02
2023-03-03T15:20:46.213Z,30.13
2023-03-03T15:23:48.134Z,31.45
2023-03-03T15:26:33.446Z,30.63
2023-03-03T15:29:25.101Z,31.78
2023-03-03T15:31:51.999Z,32.37
2023-03-03T15:34:33.685Z,33.04
2023-03-03T15:37:24.769Z,32.51
2023-03-03T15:39:51.767Z,31.36
2023-03-03T15:42:35.894Z,32.49
2023-03-03T15:45:08.864Z,32.17
2023-03-03T15:47:38.716Z,31.80
2023-03-03T15:50:36.489Z,31.75
2023-03-03T15:53:15.051Z,34.11
2023-03-03T15:55:52.745Z,36.72
2023-03-03T15:58:19.452Z,37.89
2023-03-03T16:00:52.710Z,38.75
2023-03-03T16:03:36.555Z,39.72
2023-03-03T16:06:13.226Z,39.53
2023-03-03T16:08:52.789Z,40.03
2023-03-03T16:11:28.897Z,40.17
2023-03-03T16:14:22.463Z,41.31
2023-03-03T16:16:52.938Z,41.69
2023-03-03T16:19:38.012Z,42.21
2023-03-03T16:22:41.271Z,41.97
2023-03-03T16:25:23.418Z,41.99
2023-03-03T16:27:56.329Z,42.51
2023-03-03T16:30:32.938Z,42.74
2023-03-03T16:33:18.402Z,43.43
2023-03-03T16:38:37.544Z,46.12
2023-03-03T16:41:12.957Z,46.21
2023-03-03T16:43:48.789Z,45.98
2023-03-03T16:46:29.954Z,46.63
2023-03-03T16:49:27.542Z,47.79
2023-03-03T16:52:12.619Z,47.92
2023-03-03T16:57:23.818Z,49.02
2023-03-03T16:59:51.672Z,49.25
2023-03-03T17:02:48.596Z,49.93
2023-03-03T17:05:53.181Z,49.98
2023-03-03T17:08:36.246Z,50.23
2023-03-03T17:11:09.734Z,50.34
2023-03-03T17:13:52.690Z,50.65
2023-03-03T17:16:22.107Z,51.10
2023-03-03T17:18:51.758Z,51.34
2023-03-03T17:21:52.986Z,51.29
2023-03-03T17:24:48.770Z,52.28
2023-03-03T17:27:25.109Z,52.85
2023-03-03T17:29:56.975Z,53.99
2023-03-03T17:32:49.839Z,54.11
2023-03-03T17:35:19.397Z,55.07
2023-03-03T17:37:52.670Z,55.32
2023-03-03T17:40:37.390Z,55.20
2023-03-03T17:43:12.498Z,55.01
2023-03-03T17:45:43.400Z,55.13
2023-03-03T17:51:52.971Z,55.74
2023-03-03T17:54:49.199Z,55.00
2023-03-03T17:57:25.028Z,54.65
2023-03-03T17:59:53.266Z,55.04
2023-03-03T18:02:25.961Z,54.79
2023-03-03T18:05:16.211Z,54.87
2023-03-03T18:07:52.787Z,53.78
2023-03-03T18:10:52.678Z,54.46
2023-03-03T18:13:39.616Z,53.97
2023-03-03T18:16:12.696Z,53.54
2023-03-03T18:18:39.654Z,53.88
2023-03-03T18:21:14.769Z,54.04
2023-03-03T18:23:44.159Z,54.68
2023-03-03T18:26:34.689Z,55.66
2023-03-03T18:29:21.738Z,56.58
2023-03-03T18:31:51.822Z,57.08
2023-03-03T18:34:21.566Z,58.14
2023-03-03T18:36:53.024Z,58.40
2023-03-03T18:39:45.862Z,58.94
2023-03-03T18:42:15.985Z,59.45
2023-03-03T18:44:48.112Z,60.36
2023-03-03T18:47:17.334Z,60.87
2023-03-03T18:49:54.137Z,61.05
2023-03-03T18:52:27.569Z,61.00
2023-03-03T18:55:12.221Z,60.54
2023-03-03T18:57:39.780Z,61.41
2023-03-03T19:00:22.340Z,61.47
2023-03-03T19:02:53.040Z,61.41
2023-03-03T19:05:50.224Z,61.83
2023-03-03T19:08:25.161Z,62.44
2023-03-03T19:10:52.717Z,62.91
2023-03-03T19:13:35.002Z,63.54
2023-03-03T19:16:07.061Z,63.90
2023-03-03T19:18:48.073Z,64.00
2023-03-03T19:21:43.244Z,64.54
2023-03-03T19:24:34.140Z,64.64
2023-03-03T19:27:00.988Z,63.79
2023-03-03T19:29:46.399Z,65.15
2023-03-03T19:32:31.176Z,65.49
2023-03-03T19:35:26.100Z,66.04
2023-03-03T19:38:19.366Z,65.91
2023-03-03T19:40:51.863Z,66.44
2023-03-03T19:43:27.516Z,66.14
2023-03-03T19:46:31.112Z,67.12
2023-03-03T19:49:35.682Z,67.26
2023-03-03T19:52:19.012Z,67.63
2023-03-03T19:57:34.956Z,68.52
2023-03-03T20:00:16.512Z,68.54
2023-03-03T20:02:56.452Z,68.56
2023-03-03T20:05:52.734Z,68.39
2023-03-03T20:08:25.534Z,68.72
2023-03-03T20:11:17.815Z,69.57
2023-03-03T20:13:53.050Z,70.05
2023-03-03T20:16:28.981Z,69.66
2023-03-03T20:19:26.423Z,70.04
2023-03-03T20:22:22.178Z,69.84
2023-03-03T20:24:52.817Z,70.53
2023-03-03T20:27:46.450Z,70.39
2023-03-03T20:30:47.761Z,71.26
2023-03-03T20:33:36.987Z,71.48
2023-03-03T20:36:25.145Z,72.02
2023-03-03T20:38:52.844Z,71.73
2023-03-03T20:41:52.746Z,72.24
2023-03-03T20:47:43.705Z,72.54
2023-03-03T20:50:15.739Z,73.23
2023-03-03T20:52:52.874Z,73.06
2023-03-03T20:55:25.717Z,73.39
2023-03-03T20:57:56.057Z,73.66
2023-03-03T21:00:30.086Z,73.64
2023-03-03T21:03:14.826Z,74.44
2023-03-03T21:05:52.798Z,75.51
2023-03-03T21:08:19.552Z,74.97
2023-03-03T21:10:51.890Z,75.06
2023-03-03T21:13:32.672Z,75.41
2023-03-03T21:16:34.108Z,75.86
2023-03-03T21:19:11.409Z,75.33
2023-03-03T21:21:40.238Z,76.37
2023-03-03T21:24:08.492Z,76.31
2023-03-03T21:26:52.766Z,76.11
2023-03-03T21:29:27.112Z,76.17
2023-03-03T21:32:08.659Z,76.46
2023-03-03T21:34:36.798Z,77.29
2023-03-03T21:37:06.644Z,76.95
2023-03-03T21:39:39.367Z,76.92
2023-03-03T21:42:22.512Z,77.46
2023-03-03T21:47:33.508Z,79.13
2023-03-03T21:50:04.016Z,79.75
2023-03-03T21:52:34.562Z,80.71
2023-03-03T21:55:03.839Z,80.59
2023-03-03T21:57:32.859Z,80.92
2023-03-03T21:59:59.599Z,81.16
2023-03-03T22:02:26.340Z,80.81
2023-03-03T22:04:53.358Z,81.20
2023-03-03T22:07:20.088Z,81.25
2023-03-03T22:09:46.754Z,80.82
2023-03-03T22:12:13.738Z,81.00
2023-03-03T22:14:40.922Z,81.53
2023-03-03T22:17:07.958Z,81.75
2023-03-03T22:19:39.533Z,82.31
2023-03-03T22:22:09.740Z,82.13
2023-03-03T22:24:36.477Z,82.46
2023-03-03T22:27:04.027Z,82.76
2023-03-03T22:29:30.963Z,82.61
2023-03-03T22:31:57.683Z,82.74
2023-03-03T22:34:24.882Z,83.69
2023-03-03T22:39:17.168Z,83.71
2023-03-03T22:41:44.271Z,84.47
2023-03-03T22:44:11.010Z,84.77
2023-03-03T22:46:37.891Z,84.62
2023-03-03T22:49:06.051Z,84.57
2023-03-03T22:51:33.127Z,84.27
2023-03-03T22:54:00.000Z,84.20
2023-03-03T22:56:29.776Z,84.44
2023-03-03T22:58:56.941Z,84.77
2023-03-03T23:01:24.388Z,84.54
2023-03-03T23:06:17.506Z,84.85
2023-03-03T23:08:44.427Z,84.73
2023-03-03T23:11:11.325Z,85.26
2023-03-03T23:13:38.117Z,85.66
2023-03-03T23:16:05.216Z,85.75
2023-03-03T23:18:32.382Z,86.13
2023-03-03T23:20:59.114Z,86.45
2023-03-03T23:23:25.902Z,86.98
2023-03-03T23:25:52.973Z,87.93
2023-03-03T23:28:19.727Z,88.87
2023-03-03T23:30:46.848Z,89.54
2023-03-03T23:33:13.490Z,89.74
2023-03-03T23:35:41.414Z,89.79
2023-03-03T23:38:08.332Z,90.08
2023-03-03T23:40:35.075Z,90.47
2023-03-03T23:43:01.765Z,90.29
2023-03-03T23:45:28.575Z,90.88
2023-03-03T23:47:55.279Z,91.38
2023-03-03T23:50:21.962Z,90.73
2023-03-03T23:52:50.050Z,91.24
2023-03-03T23:55:16.755Z,91.49
2023-03-03T23:57:46.895Z,91.53
